sensor_id;sensor_type;location;lat;lon;timestamp;temperature;humidity
71297;SHT31;59082;50.658;4.608;2023-07-08T06:18:51;24.40;78.84
71297;SHT31;59082;50.658;4.608;2023-07-08T06:21:16;24.69;77.35
71297;SHT31;59082;50.658;4.608;2023-07-08T06:23:42;24.88;76.60
71297;SHT31;59082;50.658;4.608;2023-07-08T06:26:07;24.95;76.84
71297;SHT31;59082;50.658;4.608;2023-07-08T06:28:33;25.40;77.07
71297;SHT31;59082;50.658;4.608;2023-07-08T06:30:58;25.17;77.91
71297;SHT31;59082;50.658;4.608;2023-07-08T06:33:24;25.46;78.64
71297;SHT31;59082;50.658;4.608;2023-07-08T06:35:49;25.81;78.91
71297;SHT31;59082;50.658;4.608;2023-07-08T06:38:15;25.89;79.32
71297;SHT31;59082;50.658;4.608;2023-07-08T06:40:40;26.06;78.97
71297;SHT31;59082;50.658;4.608;2023-07-08T06:43:06;26.23;79.00
71297;SHT31;59082;50.658;4.608;2023-07-08T06:45:31;26.35;78.63
71297;SHT31;59082;50.658;4.608;2023-07-08T06:47:57;26.50;78.27
71297;SHT31;59082;50.658;4.608;2023-07-08T06:50:23;26.63;77.59
71297;SHT31;59082;50.658;4.608;2023-07-08T06:52:48;26.92;76.21
71297;SHT31;59082;50.658;4.608;2023-07-08T06:55:14;27.32;74.61
71297;SHT31;59082;50.658;4.608;2023-07-08T06:57:40;27.36;74.07
71297;SHT31;59082;50.658;4.608;2023-07-08T07:00:07;27.07;75.06
71297;SHT31;59082;50.658;4.608;2023-07-08T07:02:33;27.43;74.90
71297;SHT31;59082;50.658;4.608;2023-07-08T07:05:00;27.79;76.49
71297;SHT31;59082;50.658;4.608;2023-07-08T07:07:25;27.91;74.54
71297;SHT31;59082;50.658;4.608;2023-07-08T07:09:51;27.94;73.75
71297;SHT31;59082;50.658;4.608;2023-07-08T07:12:16;28.31;72.97
71297;SHT31;59082;50.658;4.608;2023-07-08T07:14:42;28.86;71.08
71297;SHT31;59082;50.658;4.608;2023-07-08T07:17:07;29.07;71.34
71297;SHT31;59082;50.658;4.608;2023-07-08T07:19:33;28.87;71.38
71297;SHT31;59082;50.658;4.608;2023-07-08T07:21:58;29.65;75.43
71297;SHT31;59082;50.658;4.608;2023-07-08T07:24:24;29.45;74.22
71297;SHT31;59082;50.658;4.608;2023-07-08T07:26:50;29.83;73.50
71297;SHT31;59082;50.658;4.608;2023-07-08T07:29:16;30.03;73.35
71297;SHT31;59082;50.658;4.608;2023-07-08T07:31:43;30.23;69.70
71297;SHT31;59082;50.658;4.608;2023-07-08T07:34:09;30.43;71.56
71297;SHT31;59082;50.658;4.608;2023-07-08T07:36:36;30.47;71.25
71297;SHT31;59082;50.658;4.608;2023-07-08T07:39:02;30.81;70.91
71297;SHT31;59082;50.658;4.608;2023-07-08T07:41:27;30.79;71.19
71297;SHT31;59082;50.658;4.608;2023-07-08T07:43:53;30.79;70.60
71297;SHT31;59082;50.658;4.608;2023-07-08T07:46:18;31.12;68.92
71297;SHT31;59082;50.658;4.608;2023-07-08T07:48:44;31.49;69.22
71297;SHT31;59082;50.658;4.608;2023-07-08T07:51:09;31.54;69.30
71297;SHT31;59082;50.658;4.608;2023-07-08T07:53:37;31.59;68.48
71297;SHT31;59082;50.658;4.608;2023-07-08T07:56:03;31.13;69.73
71297;SHT31;59082;50.658;4.608;2023-07-08T07:58:30;31.19;69.26
71297;SHT31;59082;50.658;4.608;2023-07-08T08:00:56;31.54;67.85
71297;SHT31;59082;50.658;4.608;2023-07-08T08:03:22;31.82;70.26
71297;SHT31;59082;50.658;4.608;2023-07-08T08:05:48;32.59;67.42
71297;SHT31;59082;50.658;4.608;2023-07-08T08:08:14;33.11;65.46
71297;SHT31;59082;50.658;4.608;2023-07-08T08:10:39;33.35;66.77
71297;SHT31;59082;50.658;4.608;2023-07-08T08:13:05;33.61;65.06
71297;SHT31;59082;50.658;4.608;2023-07-08T08:15:30;33.48;64.70
71297;SHT31;59082;50.658;4.608;2023-07-08T08:17:57;34.12;65.01
71297;SHT31;59082;50.658;4.608;2023-07-08T08:20:24;34.02;65.08
71297;SHT31;59082;50.658;4.608;2023-07-08T08:22:50;33.97;64.42
71297;SHT31;59082;50.658;4.608;2023-07-08T08:25:18;34.95;62.30
71297;SHT31;59082;50.658;4.608;2023-07-08T08:27:43;35.20;63.76
71297;SHT31;59082;50.658;4.608;2023-07-08T08:30:10;35.90;63.22
71297;SHT31;59082;50.658;4.608;2023-07-08T08:32:35;36.21;62.03
71297;SHT31;59082;50.658;4.608;2023-07-08T08:35:01;35.97;61.19
71297;SHT31;59082;50.658;4.608;2023-07-08T08:37:27;36.26;61.24
71297;SHT31;59082;50.658;4.608;2023-07-08T08:39:52;37.35;60.35
71297;SHT31;59082;50.658;4.608;2023-07-08T08:42:27;37.46;59.99
71297;SHT31;59082;50.658;4.608;2023-07-08T08:44:54;37.85;59.91
71297;SHT31;59082;50.658;4.608;2023-07-08T08:49:56;38.52;58.19
71297;SHT31;59082;50.658;4.608;2023-07-08T08:52:22;39.10;58.02
71297;SHT31;59082;50.658;4.608;2023-07-08T08:54:48;38.95;58.64
71297;SHT31;59082;50.658;4.608;2023-07-08T09:00:00;39.60;58.03
71297;SHT31;59082;50.658;4.608;2023-07-08T09:05:11;39.92;57.18
71297;SHT31;59082;50.658;4.608;2023-07-08T09:13:16;41.55;56.07
71297;SHT31;59082;50.658;4.608;2023-07-08T09:15:42;41.45;56.32
71297;SHT31;59082;50.658;4.608;2023-07-08T09:18:19;42.65;54.36
71297;SHT31;59082;50.658;4.608;2023-07-08T09:20:46;44.36;53.51
71297;SHT31;59082;50.658;4.608;2023-07-08T09:23:20;44.16;53.42
71297;SHT31;59082;50.658;4.608;2023-07-08T09:26:03;44.02;53.99
71297;SHT31;59082;50.658;4.608;2023-07-08T09:28:38;44.18;53.71
71297;SHT31;59082;50.658;4.608;2023-07-08T09:31:07;45.13;52.94
71297;SHT31;59082;50.658;4.608;2023-07-08T09:33:33;46.63;51.49
71297;SHT31;59082;50.658;4.608;2023-07-08T09:35:59;47.26;50.72
71297;SHT31;59082;50.658;4.608;2023-07-08T09:38:25;47.70;50.30
71297;SHT31;59082;50.658;4.608;2023-07-08T09:40:52;48.65;49.67
71297;SHT31;59082;50.658;4.608;2023-07-08T09:43:34;48.83;49.25
71297;SHT31;59082;50.658;4.608;2023-07-08T09:46:03;49.74;48.26
71297;SHT31;59082;50.658;4.608;2023-07-08T09:48:39;48.93;49.49
71297;SHT31;59082;50.658;4.608;2023-07-08T09:51:05;46.24;50.09
71297;SHT31;59082;50.658;4.608;2023-07-08T09:53:33;49.84;47.86
71297;SHT31;59082;50.658;4.608;2023-07-08T09:56:00;47.30;50.46
71297;SHT31;59082;50.658;4.608;2023-07-08T09:58:30;49.62;48.11
71297;SHT31;59082;50.658;4.608;2023-07-08T10:01:05;51.45;47.17
71297;SHT31;59082;50.658;4.608;2023-07-08T10:03:35;51.82;46.83
71297;SHT31;59082;50.658;4.608;2023-07-08T10:06:24;52.31;47.04
71297;SHT31;59082;50.658;4.608;2023-07-08T10:08:50;52.58;46.50
71297;SHT31;59082;50.658;4.608;2023-07-08T10:11:30;52.81;46.19
71297;SHT31;59082;50.658;4.608;2023-07-08T10:14:01;53.80;45.92
71297;SHT31;59082;50.658;4.608;2023-07-08T10:16:30;53.12;46.67
71297;SHT31;59082;50.658;4.608;2023-07-08T10:18:56;53.67;46.52
71297;SHT31;59082;50.658;4.608;2023-07-08T10:30:21;55.59;45.04
71297;SHT31;59082;50.658;4.608;2023-07-08T10:36:26;51.24;47.31
71297;SHT31;59082;50.658;4.608;2023-07-08T10:44:38;50.81;48.07
71297;SHT31;59082;50.658;4.608;2023-07-08T10:47:22;52.78;45.93
71297;SHT31;59082;50.658;4.608;2023-07-08T10:50:03;54.35;44.45
71297;SHT31;59082;50.658;4.608;2023-07-08T10:52:51;53.76;46.99
71297;SHT31;59082;50.658;4.608;2023-07-08T10:55:40;55.11;45.61
71297;SHT31;59082;50.658;4.608;2023-07-08T10:58:20;58.62;43.14
71297;SHT31;59082;50.658;4.608;2023-07-08T11:09:24;59.30;43.06
71297;SHT31;59082;50.658;4.608;2023-07-08T11:11:58;57.66;43.28
71297;SHT31;59082;50.658;4.608;2023-07-08T11:14:40;60.04;42.12
71297;SHT31;59082;50.658;4.608;2023-07-08T11:19:40;59.30;42.45
71297;SHT31;59082;50.658;4.608;2023-07-08T11:22:12;60.42;42.63
71297;SHT31;59082;50.658;4.608;2023-07-08T11:24:49;61.11;42.24
71297;SHT31;59082;50.658;4.608;2023-07-08T11:27:32;59.67;42.99
71297;SHT31;59082;50.658;4.608;2023-07-08T11:32:37;60.79;42.86
71297;SHT31;59082;50.658;4.608;2023-07-08T11:35:05;56.74;43.84
71297;SHT31;59082;50.658;4.608;2023-07-08T11:37:37;60.19;42.73
71297;SHT31;59082;50.658;4.608;2023-07-08T11:40:15;58.23;44.64
71297;SHT31;59082;50.658;4.608;2023-07-08T11:42:44;61.61;42.10
71297;SHT31;59082;50.658;4.608;2023-07-08T11:45:33;59.44;43.32
71297;SHT31;59082;50.658;4.608;2023-07-08T11:50:33;61.34;41.01
71297;SHT31;59082;50.658;4.608;2023-07-08T11:53:11;56.61;42.77
71297;SHT31;59082;50.658;4.608;2023-07-08T11:55:55;57.33;43.55
71297;SHT31;59082;50.658;4.608;2023-07-08T11:58:22;56.98;42.63
71297;SHT31;59082;50.658;4.608;2023-07-08T12:03:38;44.73;51.10
71297;SHT31;59082;50.658;4.608;2023-07-08T12:08:59;39.83;57.05
71297;SHT31;59082;50.658;4.608;2023-07-08T12:11:33;36.42;59.42
71297;SHT31;59082;50.658;4.608;2023-07-08T12:14:01;35.25;63.24
71297;SHT31;59082;50.658;4.608;2023-07-08T12:16:29;32.72;88.47
71297;SHT31;59082;50.658;4.608;2023-07-08T12:18:56;46.37;99.99
71297;SHT31;59082;50.658;4.608;2023-07-08T12:21:26;56.43;99.99
71297;SHT31;59082;50.658;4.608;2023-07-08T12:23:53;46.12;93.76
71297;SHT31;59082;50.658;4.608;2023-07-08T12:26:19;42.90;91.40
71297;SHT31;59082;50.658;4.608;2023-07-08T12:28:45;47.98;72.74
